Data for 11/08/2015

Time Sea-Level Adjusted Pressure Absolute Pressure Temperature Relative Humidity Dew Point   
(mb) (inHg) (mb) (inHg) (C) (F) (%) (C) (F)
00:05 1018 30.06 848 25.04 -2.2 28 80 -5.2 22.6
00:10 1018 30.06 848 25.04 -1.5 29.3 75 -5.3 22.4
00:15 1018 30.06 848 25.04 -1.5 29.4 75 -5.3 22.5
00:20 1018 30.06 847 25.01 -1.5 29.2 75 -5.4 22.4
00:25 1018 30.06 847 25.01 -1.6 29.2 75 -5.4 22.3
00:30 1018 30.06 847 25.01 -1.4 29.5 76 -5 22.9
00:35 1018 30.06 847 25.01 -1.4 29.6 76 -5.1 22.9
00:40 1018 30.06 847 25.01 -1.5 29.3 76 -5.2 22.6
00:45 1018 30.06 847 25.01 -1.6 29 76 -5.3 22.4
00:50 1018 30.06 847 25.01 -1.9 28.5 76 -5.7 21.8
00:55 1018 30.06 847 25.01 -2.1 28.3 76 -5.7 21.8
01:00 1018 30.06 847 25.01 -2.2 28 78 -5.5 22
01:05 1018 30.06 847 25.01 -2.1 28.3 75 -5.9 21.4
01:10 1018 30.06 847 25.01 -1.5 29.3 74 -5.6 21.9
01:15 1018 30.06 847 25.01 -1.1 30.1 72 -5.5 22.1
01:20 1018 30.06 847 25.01 -1.1 30 72 -5.6 22
01:25 1018 30.06 847 25.01 -1.3 29.7 73 -5.5 22.1
01:30 1018 30.06 847 25.01 -1.3 29.6 73 -5.6 22
01:35 1018 30.06 847 25.01 -1.6 29.1 74 -5.7 21.7
01:40 1018 30.06 847 25.01 -2 28.5 75 -5.7 21.7
01:45 1018 30.06 847 25.01 -2.1 28.3 76 -5.8 21.6
01:50 1018 30.06 847 25.01 -1.5 29.3 73 -5.8 21.5
01:55 1018 30.06 847 25.01 -1.7 28.9 75 -5.6 21.8
02:00 1018 30.06 847 25.01 -2 28.5 75 -5.8 21.6
02:05 1018 30.06 847 25.01 -2.2 28.1 76 -5.8 21.6
02:10 1018 30.06 847 25.01 -2.4 27.6 78 -5.7 21.7
02:15 1018 30.06 847 25.01 -2.2 28.1 75 -5.9 21.3
02:20 1018 30.06 847 25.01 -2.1 28.1 75 -6 21.1
02:25 1018 30.06 847 25.01 -1.8 28.8 73 -6.1 21.1
02:30 1018 30.06 847 25.01 -1.8 28.8 73 -6 21.2
02:35 1018 30.06 847 25.01 -1.8 28.8 73 -6 21.1
02:40 1018 30.06 847 25.01 -1.8 28.7 72 -6.2 20.9
02:45 1018 30.06 847 25.01 -2 28.5 73 -6.1 21
02:50 1018 30.06 847 25.01 -2.1 28.3 74 -6 21.1
02:55 1018 30.06 847 25.01 -2.4 27.6 78 -5.7 21.7
03:00 1018 30.06 847 25.01 -2.3 27.8 76 -6.1 21.1
03:05 1018 30.06 847 25.01 -1.9 28.6 73 -6.1 21.1
03:10 1018 30.06 847 25.01 -1.8 28.7 74 -5.9 21.4
03:15 1018 30.06 847 25.01 -1.5 29.3 69 -6.4 20.4
03:20 1018 30.06 847 25.01 -0.9 30.4 67 -6.2 20.8
03:25 1018 30.06 847 25.01 -0.8 30.6 67 -6.1 20.9
03:30 1018 30.06 847 25.01 -0.9 30.4 67 -6.3 20.7
03:35 1018 30.06 847 25.01 -0.8 30.5 68 -6.1 21.1
03:40 1018 30.06 847 25.01 -1.2 29.8 71 -5.8 21.6
03:45 1018 30.06 847 25.01 -1 30.1 68 -6.2 20.8
03:50 1017 30.03 847 25.01 -0.7 30.7 67 -6.1 21
03:55 1017 30.03 847 25.01 -0.9 30.4 67 -6.3 20.7
04:00 1017 30.03 847 25.01 -0.8 30.6 67 -6.2 20.8
04:05 1017 30.03 847 25.01 -0.7 30.7 67 -6.1 21
04:10 1017 30.03 847 25.01 -0.7 30.7 68 -5.9 21.5
04:15 1017 30.03 846 24.98 -0.8 30.6 69 -5.8 21.6
04:20 1017 30.03 846 24.98 -1.1 30 69 -6.1 21.1
04:25 1017 30.03 846 24.98 -1.2 29.9 69 -6.1 21
04:30 1017 30.03 846 24.98 -1.1 30 69 -6.1 21.1
04:35 1017 30.03 846 24.98 -1.5 29.4 68 -6.6 20.2
04:40 1017 30.03 846 24.98 -1.2 29.9 67 -6.5 20.3
04:45 1017 30.03 846 24.98 -1.3 29.7 68 -6.5 20.3
04:50 1017 30.03 846 24.98 -1.5 29.2 70 -6.4 20.6
04:55 1017 30.03 846 24.98 -2.1 28.2 73 -6.4 20.4
05:00 1017 30.03 846 24.98 -2.4 27.7 73 -6.6 20.1
05:05 1017 30.03 846 24.98 -2.5 27.5 74 -6.6 20.1
05:10 1017 30.03 846 24.98 -2.4 27.6 73 -6.7 20
05:15 1017 30.03 846 24.98 -2.3 27.9 73 -6.6 20.2
05:20 1017 30.03 846 24.98 -2.1 28.2 71 -6.6 20.1
05:25 1017 30.03 846 24.98 -2 28.3 71 -6.5 20.2
05:30 1017 30.03 846 24.98 -2.3 27.9 72 -6.7 20
05:35 1017 30.03 846 24.98 -2.3 27.8 72 -6.8 19.8
05:40 1017 30.03 846 24.98 -2.3 27.9 71 -6.8 19.8
05:45 1017 30.03 846 24.98 -2.1 28.2 71 -6.8 19.8
05:50 1017 30.03 846 24.98 -2 28.4 70 -6.7 20
05:55 1017 30.03 846 24.98 -1.9 28.7 69 -6.7 19.9
06:00 1017 30.03 846 24.98 -1.6 29.2 69 -6.5 20.3
06:05 1017 30.03 846 24.98 -1.6 29.1 69 -6.5 20.3
06:10 1017 30.03 846 24.98 -1.6 29.2 68 -6.6 20.1
06:15 1017 30.03 846 24.98 -1.6 29.2 69 -6.6 20.1
06:20 1017 30.03 846 24.98 -1.6 29.1 70 -6.4 20.4
06:25 1017 30.03 846 24.98 -1.9 28.7 72 -6.3 20.7
06:30 1017 30.03 846 24.98 -1.9 28.5 70 -6.6 20
06:35 1017 30.03 846 24.98 -1.7 28.9 69 -6.7 20
06:40 1017 30.03 846 24.98 -1.7 29 69 -6.6 20.1
06:45 1017 30.03 846 24.98 -1.8 28.8 72 -6.2 20.9
06:50 1017 30.03 846 24.98 -2.7 27.2 79 -5.9 21.5
06:55 1017 30.03 846 24.98 -2.7 27.2 76 -6.4 20.6
07:00 1017 30.03 846 24.98 -2.5 27.5 74 -6.6 20.2
07:05 1017 30.03 846 24.98 -2.5 27.4 73 -6.7 20
07:10 1017 30.03 846 24.98 -2.5 27.5 72 -6.8 19.7
07:15 1016 30 846 24.98 -2.5 27.4 72 -6.9 19.6
07:20 1016 30 846 24.98 -2.5 27.5 72 -6.8 19.7
07:25 1016 30 846 24.98 -2.5 27.5 73 -6.7 19.9
07:30 1016 30 846 24.98 -2.7 27.1 74 -6.8 19.7
07:35 1016 30 846 24.98 -2.7 27.1 73 -6.8 19.7
07:40 1016 30 846 24.98 -2.6 27.3 73 -6.8 19.8
07:45 1016 30 846 24.98 -2.5 27.5 73 -6.7 19.9
07:50 1016 30 846 24.98 -2.4 27.6 72 -6.8 19.7
07:55 1016 30 845 24.95 -2.4 27.7 72 -6.8 19.8
08:00 1016 30 845 24.95 -2.4 27.7 72 -6.8 19.7
08:05 1016 30 845 24.95 -2.4 27.8 71 -6.9 19.6
08:10 1016 30 845 24.95 -2.4 27.6 73 -6.7 20
08:15 1016 30 845 24.95 -2.5 27.5 73 -6.7 19.9
08:20 1016 30 845 24.95 -2.8 27 74 -6.8 19.7
08:25 1016 30 845 24.95 -2.7 27.1 73 -6.9 19.6
08:30 1016 30 845 24.95 -2.8 26.9 74 -6.9 19.5
08:35 1016 30 845 24.95 -2.6 27.3 72 -7 19.5
08:40 1016 30 845 24.95 -2.1 28.2 70 -6.8 19.7
08:45 1016 30 845 24.95 -1.5 29.4 67 -6.9 19.6
08:50 1016 30 845 24.95 -1 30.1 65 -6.8 19.8
08:55 1016 30 845 24.95 -0.8 30.6 65 -6.6 20.1
09:00 1016 30 845 24.95 -0.2 31.6 61 -6.8 19.7
09:05 1016 30 845 24.95 0.1 32.2 63 -6 21.2
09:10 1016 30 845 24.95 0 32.1 63 -6.2 20.8
09:15 1016 30 845 24.95 0.1 32.2 61 -6.4 20.4
09:20 1016 30 845 24.95 0.3 32.6 61 -6.2 20.8
09:25 1016 30 845 24.95 -0.2 31.7 62 -6.5 20.2
09:30 1016 30 845 24.95 0.1 32.1 61 -6.6 20.1
09:35 1016 30 845 24.95 -0.1 31.9 63 -6.2 20.9
09:40 1016 30 845 24.95 -0.1 31.8 63 -6.4 20.5
09:45 1016 30 845 24.95 0.1 32.3 63 -6 21.1
09:50 1016 30 845 24.95 0.3 32.5 63 -5.9 21.4
09:55 1016 30 845 24.95 0.7 33.3 64 -5.4 22.3
10:00 1016 30 845 24.95 0.6 33.1 66 -5 23
10:05 1016 30 845 24.95 0.4 32.7 65 -5.5 22.2
10:10 1016 30 845 24.95 1.3 34.3 62 -5.3 22.5
10:15 1016 30 845 24.95 2 35.7 59 -5.1 22.8
10:20 1016 30 845 24.95 2.6 36.7 57 -5 23
10:25 1016 30 845 24.95 2.7 36.9 57 -5.1 22.9
10:30 1016 30 845 24.95 2.8 37.1 55 -5.2 22.6
10:35 1016 30 845 24.95 3.6 38.4 53 -5.2 22.6
10:40 1016 30 845 24.95 3.9 39 52 -5.1 22.8
10:45 1016 30 845 24.95 4.1 39.4 47 -6.2 20.9
10:50 1016 30 845 24.95 4.2 39.5 44 -6.9 19.5
10:55 1016 30 845 24.95 3.9 38.9 49 -5.9 21.3
11:00 1016 30 845 24.95 3.8 38.8 47 -6.5 20.3
11:05 1016 30 845 24.95 4.2 39.5 47 -6.2 20.9
11:10 1016 30 845 24.95 4.3 39.8 46 -6.3 20.6
11:15 1016 30 845 24.95 5.1 41.1 44 -6.2 20.8
11:20 1016 30 845 24.95 4.8 40.6 45 -6.2 20.8
11:25 1016 30 845 24.95 5.1 41.2 46 -5.5 22.1
11:30 1016 30 845 24.95 5.4 41.7 44 -5.9 21.5
11:35 1016 30 845 24.95 5.6 42.1 47 -4.8 23.4
11:40 1016 30 845 24.95 5.4 41.8 47 -5 22.9
11:45 1016 30 845 24.95 5.4 41.7 45 -5.6 22
11:50 1016 30 845 24.95 5.6 42 45 -5.4 22.4
11:55 1016 30 845 24.95 5.9 42.6 46 -5 23
12:00 1016 30 845 24.95 6.1 42.9 45 -5.1 22.8
12:05 1016 30 845 24.95 5.7 42.3 47 -4.7 23.5
12:10 1016 30 845 24.95 5.7 42.3 48 -4.6 23.8
12:15 1016 30 845 24.95 5.8 42.4 46 -4.8 23.4
12:20 1016 30 845 24.95 6.2 43.1 47 -4.4 24.2
12:25 1016 30 845 24.95 6.4 43.5 47 -4.2 24.5
12:30 1016 30 845 24.95 6.4 43.5 46 -4.3 24.3
12:35 1016 30 845 24.95 6.5 43.8 45 -4.7 23.6
12:40 1016 30 845 24.95 6.6 43.8 45 -4.5 23.9
12:45 1015 29.97 845 24.95 6.4 43.5 47 -4.2 24.5
12:50 1015 29.97 845 24.95 5.6 42.2 51 -3.8 25.1
12:55 1015 29.97 845 24.95 5.3 41.6 49 -4.6 23.7
13:00 1015 29.97 844 24.92 5.6 42 47 -5 23.1
13:05 1015 29.97 844 24.92 5.4 41.8 47 -5.1 22.9
13:10 1015 29.97 844 24.92 6.1 43 43 -5.4 22.2
13:15 1015 29.97 844 24.92 6.4 43.5 43 -5.2 22.6
13:20 1015 29.97 844 24.92 6.1 42.9 42 -6 21.2
13:25 1015 29.97 844 24.92 6.6 43.8 40 -6 21.2
13:30 1015 29.97 844 24.92 7.3 45.2 37 -6.5 20.3
13:35 1015 29.97 844 24.92 7.5 45.4 36 -6.7 20
13:40 1015 29.97 844 24.92 7 44.5 38 -6.5 20.3
13:45 1015 29.97 844 24.92 6.7 44.1 39 -6.2 20.9
13:50 1015 29.97 844 24.92 7.1 44.7 38 -6.4 20.6
13:55 1015 29.97 844 24.92 7.3 45.1 40 -5.4 22.2
14:00 1015 29.97 844 24.92 7.3 45.1 40 -5.5 22.2
14:05 1015 29.97 844 24.92 7.3 45.2 39 -5.6 21.8
14:10 1015 29.97 844 24.92 7.3 45.1 42 -4.8 23.3
14:15 1015 29.97 844 24.92 7.5 45.5 39 -5.5 22
14:20 1015 29.97 844 24.92 8.3 47 39 -5 23.1
14:25 1015 29.97 844 24.92 7.7 45.8 45 -3.6 25.6
14:30 1015 29.97 844 24.92 6.9 44.5 44 -4.3 24.2
14:35 1015 29.97 844 24.92 7.3 45.1 46 -3.6 25.5
14:40 1014 29.94 844 24.92 6.3 43.4 49 -3.5 25.6
14:45 1014 29.94 844 24.92 6.5 43.6 50 -3.3 26.1
14:50 1014 29.94 844 24.92 6.6 43.9 50 -3 26.6
14:55 1014 29.94 844 24.92 7 44.6 48 -3.1 26.4
15:00 1014 29.94 844 24.92 7.2 44.9 51 -2.3 27.9
15:05 1014 29.94 844 24.92 7 44.7 50 -2.6 27.3
15:10 1014 29.94 844 24.92 7.6 45.8 46 -3.2 26.2
15:15 1014 29.94 844 24.92 7.8 46.1 46 -2.9 26.7
15:20 1014 29.94 843 24.89 7.8 46.1 47 -2.9 26.8
15:25 1014 29.94 843 24.89 8.2 46.7 43 -3.5 25.6
15:30 1014 29.94 843 24.89 9.2 48.5 42 -3.1 26.4
15:35 1014 29.94 843 24.89 8.9 48 43 -3 26.6
15:40 1014 29.94 843 24.89 8 46.3 45 -3.1 26.4
15:45 1014 29.94 843 24.89 7.8 46 45 -3.4 26
15:50 1014 29.94 843 24.89 8.3 46.9 45 -2.9 26.7
15:55 1014 29.94 843 24.89 8.8 47.8 43 -3 26.5
16:00 1014 29.94 843 24.89 9 48.2 43 -2.9 26.8
16:05 1014 29.94 843 24.89 9.1 48.4 43 -2.9 26.8
16:10 1014 29.94 843 24.89 9.2 48.6 40 -3.5 25.7
16:15 1014 29.94 843 24.89 9.1 48.4 42 -3 26.7
16:20 1014 29.94 843 24.89 8.9 48.1 43 -3 26.6
16:25 1014 29.94 843 24.89 8.6 47.5 43 -3.1 26.3
16:30 1014 29.94 843 24.89 9.2 48.5 43 -2.7 27.1
16:35 1014 29.94 843 24.89 8.9 48 43 -2.9 26.8
16:40 1014 29.94 843 24.89 9.1 48.3 42 -3.1 26.5
16:45 1014 29.94 843 24.89 9.1 48.4 40 -3.6 25.5
16:50 1014 29.94 843 24.89 8.8 47.9 42 -3.3 26.1
16:55 1014 29.94 843 24.89 8.3 47 48 -2.1 28.3
17:00 1014 29.94 843 24.89 8.1 46.7 48 -2.3 27.9
17:05 1014 29.94 843 24.89 8.3 46.9 47 -2.5 27.6
17:10 1014 29.94 843 24.89 8.5 47.4 45 -2.7 27.1
17:15 1014 29.94 843 24.89 8.9 48 43 -2.9 26.8
17:20 1014 29.94 843 24.89 9.2 48.5 44 -2.5 27.4
17:25 1014 29.94 843 24.89 8.9 48.1 45 -2.4 27.6
17:30 1014 29.94 843 24.89 8.7 47.7 45 -2.4 27.6
17:35 1014 29.94 843 24.89 8.1 46.6 48 -2.2 28.1
17:40 1014 29.94 843 24.89 7.4 45.3 50 -2.4 27.7
17:45 1014 29.94 843 24.89 7.1 44.8 51 -2.4 27.6
17:50 1014 29.94 843 24.89 7.1 44.7 51 -2.5 27.6
17:55 1014 29.94 843 24.89 6.6 43.9 54 -2.1 28.2
18:00 1014 29.94 843 24.89 6.3 43.4 56 -1.8 28.8
18:05 1014 29.94 843 24.89 5.8 42.4 57 -2 28.4
18:10 1014 29.94 843 24.89 5.3 41.5 59 -2 28.4
18:15 1014 29.94 843 24.89 4.8 40.7 60 -2.3 27.9
18:20 1014 29.94 843 24.89 4.5 40.1 60 -2.6 27.4
18:25 1014 29.94 843 24.89 4.2 39.6 60 -2.7 27.1
18:30 1014 29.94 843 24.89 4.2 39.5 57 -3.7 25.3
18:35 1014 29.94 843 24.89 4.3 39.8 59 -2.9 26.8
18:40 1014 29.94 843 24.89 3.6 38.4 60 -3.4 25.8
18:45 1014 29.94 843 24.89 3.9 39 57 -4 24.9
18:50 1014 29.94 843 24.89 4.2 39.6 58 -3.4 25.9
18:55 1014 29.94 843 24.89 4.2 39.6 56 -3.8 25.2
19:00 1014 29.94 843 24.89 4.1 39.4 58 -3.5 25.8
19:05 1014 29.94 843 24.89 3.8 38.8 59 -3.5 25.7
19:10 1014 29.94 843 24.89 3.7 38.6 60 -3.4 25.9
19:15 1014 29.94 843 24.89 3.4 38.2 60 -3.6 25.6
19:20 1014 29.94 843 24.89 3.7 38.7 58 -3.8 25.2
19:25 1014 29.94 843 24.89 3.5 38.3 58 -4 24.9
19:30 1014 29.94 843 24.89 3.7 38.6 58 -3.8 25.1
19:35 1014 29.94 843 24.89 3.5 38.2 59 -3.8 25.2
19:40 1014 29.94 843 24.89 3.6 38.5 57 -4.2 24.5
19:45 1014 29.94 843 24.89 3.7 38.6 58 -3.8 25.2
19:50 1014 29.94 843 24.89 3.6 38.5 57 -4.1 24.6
19:55 1014 29.94 843 24.89 3.7 38.6 57 -4.1 24.7
20:00 1014 29.94 843 24.89 3.7 38.6 58 -3.9 24.9
20:05 1014 29.94 843 24.89 3.6 38.4 59 -3.6 25.5
20:10 1014 29.94 843 24.89 3.3 38 58 -4.1 24.6
20:15 1014 29.94 843 24.89 3.2 37.7 58 -4.2 24.4
20:20 1014 29.94 843 24.89 3.6 38.4 55 -4.7 23.6
20:25 1014 29.94 843 24.89 3.6 38.6 56 -4.3 24.3
20:30 1014 29.94 843 24.89 3.8 38.8 54 -4.7 23.6
20:35 1014 29.94 843 24.89 3.7 38.7 54 -4.6 23.6
20:40 1014 29.94 843 24.89 3.7 38.6 56 -4.4 24.1
20:45 1014 29.94 843 24.89 3.7 38.7 53 -5 23.1
20:50 1014 29.94 843 24.89 4 39.2 53 -4.8 23.4
20:55 1014 29.94 843 24.89 4 39.2 54 -4.6 23.7
21:00 1014 29.94 843 24.89 3.7 38.6 57 -4.2 24.5
21:05 1014 29.94 843 24.89 3.3 37.9 59 -4.1 24.7
21:10 1014 29.94 843 24.89 3 37.5 59 -4.1 24.5
21:15 1014 29.94 843 24.89 3 37.5 58 -4.3 24.2
21:20 1014 29.94 843 24.89 3.2 37.7 57 -4.6 23.8
21:25 1014 29.94 843 24.89 3.3 37.9 57 -4.4 24.1
21:30 1014 29.94 843 24.89 3.2 37.8 58 -4.3 24.3
21:35 1014 29.94 843 24.89 3.1 37.6 59 -4.2 24.4
21:40 1014 29.94 843 24.89 3.1 37.5 58 -4.3 24.2
21:45 1014 29.94 843 24.89 3 37.4 58 -4.5 23.9
21:50 1014 29.94 843 24.89 3 37.5 58 -4.5 23.8
21:55 1014 29.94 843 24.89 2.9 37.2 59 -4.4 24
22:00 1014 29.94 843 24.89 2.7 36.8 60 -4.2 24.4
22:05 1014 29.94 843 24.89 2.5 36.6 58 -4.9 23.3
22:10 1014 29.94 843 24.89 2.9 37.1 58 -4.6 23.7
22:15 1014 29.94 843 24.89 2.7 36.9 58 -4.7 23.5
22:20 1014 29.94 843 24.89 2.6 36.7 59 -4.5 23.9
22:25 1014 29.94 843 24.89 2.4 36.4 59 -4.8 23.4
22:30 1014 29.94 843 24.89 2.7 36.8 58 -4.9 23.2
22:35 1014 29.94 843 24.89 2.7 36.8 57 -5.1 22.9
22:40 1014 29.94 843 24.89 3 37.4 55 -5.3 22.5
22:45 1014 29.94 843 24.89 3.2 37.8 55 -5.1 22.9
22:50 1014 29.94 843 24.89 3 37.4 56 -5 22.9
22:55 1014 29.94 843 24.89 3 37.5 53 -5.5 22.1
23:00 1014 29.94 843 24.89 3.4 38.2 52 -5.4 22.3
23:05 1014 29.94 843 24.89 3.4 38.1 52 -5.5 22.2
23:10 1014 29.94 843 24.89 3.3 38 54 -5.1 22.7
23:15 1014 29.94 843 24.89 3.2 37.7 53 -5.4 22.3
23:20 1014 29.94 843 24.89 3.3 38 52 -5.7 21.8
23:25 1014 29.94 843 24.89 3.2 37.8 53 -5.4 22.3
23:30 1014 29.94 843 24.89 3.3 38 52 -5.7 21.7
23:35 1014 29.94 843 24.89 3.4 38.2 51 -5.8 21.6
23:40 1014 29.94 843 24.89 3.5 38.3 51 -5.8 21.6
23:45 1014 29.94 843 24.89 3.4 38.2 51 -5.8 21.5
23:50 1014 29.94 843 24.89 3.8 38.9 50 -5.7 21.8
23:55 1014 29.94 843 24.89 4.2 39.6 47 -6.2 20.8
24:00 1014 29.94 843 24.89 4.4 39.9 47 -5.9 21.3